Aviation Digital Data Service (ADDS)

Output produced by METARs form (1548 UTC 04 August 2015)
found at http://aviationweather.gov/adds/metars/
 
KPNE 041518Z 0415/0512 24008KT P6SM SCT040 
     FM041700 24011G21KT P6SM BKN040 
     TEMPO 0421/0423 5SM -TSRA OVC035CB 
     FM042300 27009G16KT P6SM BKN050 
     FM050100 30005KT P6SM SCT070